createdAt,value
2024-05-09T00:00:40.584Z,1007.91
2024-05-09T00:01:38.989Z,1007.95
2024-05-09T00:02:38.992Z,1007.93
2024-05-09T00:03:39.084Z,1007.97
2024-05-09T00:04:39.018Z,1007.92
2024-05-09T00:05:39.126Z,1007.91
2024-05-09T00:06:38.886Z,1007.90
2024-05-09T00:07:38.847Z,1007.91
2024-05-09T00:08:38.941Z,1007.93
2024-05-09T00:09:38.829Z,1007.91
2024-05-09T00:10:40.040Z,1007.91
2024-05-09T00:11:38.904Z,1007.88
2024-05-09T00:12:38.776Z,1007.89
2024-05-09T00:13:38.828Z,1007.89
2024-05-09T00:14:39.069Z,1007.88
2024-05-09T00:15:38.842Z,1007.86
2024-05-09T00:16:38.722Z,1007.88
2024-05-09T00:17:38.970Z,1007.87
2024-05-09T00:18:38.812Z,1007.85
2024-05-09T00:19:38.956Z,1007.89
2024-05-09T00:20:40.948Z,1007.89
2024-05-09T00:21:38.653Z,1007.88
2024-05-09T00:22:38.786Z,1007.87
2024-05-09T00:23:38.734Z,1007.85
2024-05-09T00:24:38.671Z,1007.86
2024-05-09T00:25:38.663Z,1007.85
2024-05-09T00:26:38.723Z,1007.84
2024-05-09T00:27:38.644Z,1007.84
2024-05-09T00:28:38.670Z,1007.82
2024-05-09T00:29:38.657Z,1007.82
2024-05-09T00:30:38.674Z,1007.79
2024-05-09T00:31:38.576Z,1007.82
2024-05-09T00:32:38.755Z,1007.78
2024-05-09T00:33:38.787Z,1007.81
2024-05-09T00:34:38.512Z,1007.79
2024-05-09T00:35:38.991Z,1007.80
2024-05-09T00:36:38.533Z,1007.78
2024-05-09T00:37:38.499Z,1007.78
2024-05-09T00:38:38.526Z,1007.81
2024-05-09T00:39:38.501Z,1007.80
2024-05-09T00:40:41.123Z,1007.80
2024-05-09T00:41:38.532Z,1007.85
2024-05-09T00:42:38.474Z,1007.80
2024-05-09T00:43:38.418Z,1007.83
2024-05-09T00:44:38.513Z,1007.79
2024-05-09T00:45:38.408Z,1007.80
2024-05-09T00:46:38.416Z,1007.78
2024-05-09T00:47:38.534Z,1007.80
2024-05-09T00:48:38.590Z,1007.76
2024-05-09T00:49:38.454Z,1007.75
2024-05-09T00:50:38.886Z,1007.77
2024-05-09T00:51:38.343Z,1007.76
2024-05-09T00:52:38.319Z,1007.74
2024-05-09T00:53:38.408Z,1007.75
2024-05-09T00:54:38.299Z,1007.78
2024-05-09T00:55:38.335Z,1007.73
2024-05-09T00:56:38.434Z,1007.78
2024-05-09T00:57:38.281Z,1007.78
2024-05-09T00:58:38.243Z,1007.78
2024-05-09T00:59:38.437Z,1007.77
2024-05-09T01:00:40.487Z,1007.75
2024-05-09T01:01:38.275Z,1007.76
2024-05-09T01:02:38.464Z,1007.76
2024-05-09T01:03:38.598Z,1007.79
2024-05-09T01:04:38.707Z,1007.75
2024-05-09T01:05:38.239Z,1007.77
2024-05-09T01:06:38.153Z,1007.80
2024-05-09T01:07:38.134Z,1007.79
2024-05-09T01:08:38.331Z,1007.78
2024-05-09T01:09:38.139Z,1007.73
2024-05-09T01:10:38.125Z,1007.79
2024-05-09T01:11:38.329Z,1007.81
2024-05-09T01:12:38.121Z,1007.77
2024-05-09T01:13:38.081Z,1007.80
2024-05-09T01:14:38.180Z,1007.81
2024-05-09T01:15:38.066Z,1007.82
2024-05-09T01:16:38.043Z,1007.83
2024-05-09T01:17:38.229Z,1007.82
2024-05-09T01:18:38.167Z,1007.85
2024-05-09T01:19:38.074Z,1007.84
2024-05-09T01:20:42.295Z,1007.89
2024-05-09T01:21:39.076Z,1007.87
2024-05-09T01:22:37.984Z,1007.90
2024-05-09T01:23:38.100Z,1007.89
2024-05-09T01:24:37.950Z,1007.88
2024-05-09T01:25:38.064Z,1007.88
2024-05-09T01:26:38.011Z,1007.86
2024-05-09T01:27:37.957Z,1007.82
2024-05-09T01:28:37.936Z,1007.83
2024-05-09T01:29:37.959Z,1007.83
2024-05-09T01:30:38.574Z,1007.88
2024-05-09T01:31:37.929Z,1007.86
2024-05-09T01:32:38.004Z,1007.87
2024-05-09T01:33:38.352Z,1007.88
2024-05-09T01:34:37.887Z,1007.83
2024-05-09T01:35:38.053Z,1007.89
2024-05-09T01:36:37.820Z,1007.87
2024-05-09T01:37:37.846Z,1007.89
2024-05-09T01:38:37.812Z,1007.88
2024-05-09T01:39:37.844Z,1007.89
2024-05-09T01:40:40.015Z,1007.91
2024-05-09T01:41:37.772Z,1007.88
2024-05-09T01:42:37.775Z,1007.92
2024-05-09T01:43:37.741Z,1007.85
2024-05-09T01:44:37.929Z,1007.90
2024-05-09T01:45:37.787Z,1007.84
2024-05-09T01:46:37.751Z,1007.88
2024-05-09T01:47:37.833Z,1007.88
2024-05-09T01:48:37.809Z,1007.88
2024-05-09T01:49:37.737Z,1007.89
2024-05-09T01:50:41.190Z,1007.88
2024-05-09T01:51:38.670Z,1007.90
2024-05-09T01:52:37.642Z,1007.89
2024-05-09T01:53:37.716Z,1007.91
2024-05-09T01:54:38.224Z,1007.87
2024-05-09T01:55:37.689Z,1007.84
2024-05-09T01:56:37.700Z,1007.86
2024-05-09T01:57:37.591Z,1007.89
2024-05-09T01:58:37.603Z,1007.87
2024-05-09T01:59:37.652Z,1007.88
2024-05-09T02:00:41.269Z,1007.89
2024-05-09T02:01:55.804Z,1007.91
2024-05-09T02:02:38.701Z,1007.89
2024-05-09T02:03:37.782Z,1007.91
2024-05-09T02:04:37.624Z,1007.92
2024-05-09T02:05:37.551Z,1007.90
2024-05-09T02:06:37.642Z,1007.89
2024-05-09T02:07:37.532Z,1007.93
2024-05-09T02:08:37.532Z,1007.92
2024-05-09T02:09:37.513Z,1007.94
2024-05-09T02:10:37.470Z,1007.89
2024-05-09T02:11:37.538Z,1007.94
2024-05-09T02:12:37.462Z,1007.93
2024-05-09T02:13:37.433Z,1007.91
2024-05-09T02:14:37.558Z,1007.90
2024-05-09T02:15:37.406Z,1007.87
2024-05-09T02:16:37.382Z,1007.94
2024-05-09T02:17:37.658Z,1007.90
2024-05-09T02:18:37.487Z,1007.92
2024-05-09T02:19:37.414Z,1007.87
2024-05-09T02:20:37.446Z,1007.91
2024-05-09T02:21:37.408Z,1007.91
2024-05-09T02:22:37.328Z,1007.86
2024-05-09T02:23:37.327Z,1007.88
2024-05-09T02:24:37.315Z,1007.84
2024-05-09T02:25:37.279Z,1007.89
2024-05-09T02:26:37.319Z,1007.86
2024-05-09T02:27:37.306Z,1007.87
2024-05-09T02:28:37.294Z,1007.86
2024-05-09T02:29:37.363Z,1007.85
2024-05-09T02:30:40.609Z,1007.91
2024-05-09T02:31:37.213Z,1007.85
2024-05-09T02:32:37.426Z,1007.91
2024-05-09T02:33:37.638Z,1007.88
2024-05-09T02:34:37.238Z,1007.90
2024-05-09T02:35:37.214Z,1007.92
2024-05-09T02:36:37.148Z,1007.94
2024-05-09T02:37:37.197Z,1007.90
2024-05-09T02:38:37.346Z,1007.92
2024-05-09T02:39:37.146Z,1007.91
2024-05-09T02:40:39.118Z,1007.93
2024-05-09T02:41:37.133Z,1007.88
2024-05-09T02:42:37.119Z,1007.89
2024-05-09T02:43:37.093Z,1007.89
2024-05-09T02:44:37.090Z,1007.88
2024-05-09T02:45:37.113Z,1007.86
2024-05-09T02:46:37.063Z,1007.85
2024-05-09T02:47:37.305Z,1007.86
2024-05-09T02:48:37.354Z,1007.82
2024-05-09T02:49:37.166Z,1007.86
2024-05-09T02:50:39.490Z,1007.85
2024-05-09T02:51:36.984Z,1007.85
2024-05-09T02:52:37.063Z,1007.87
2024-05-09T02:53:37.180Z,1007.86
2024-05-09T02:54:36.976Z,1007.86
2024-05-09T02:55:36.956Z,1007.84
2024-05-09T02:56:37.111Z,1007.84
2024-05-09T02:57:36.961Z,1007.86
2024-05-09T02:58:36.942Z,1007.85
2024-05-09T02:59:36.998Z,1007.86
2024-05-09T03:00:40.404Z,1007.88
2024-05-09T03:01:38.020Z,1007.86
2024-05-09T03:02:36.983Z,1007.89
2024-05-09T03:03:37.200Z,1007.86
2024-05-09T03:04:36.878Z,1007.85
2024-05-09T03:05:37.302Z,1007.83
2024-05-09T03:06:36.865Z,1007.86
2024-05-09T03:07:36.812Z,1007.89
2024-05-09T03:08:36.860Z,1007.92
2024-05-09T03:09:36.820Z,1007.90
2024-05-09T03:10:38.800Z,1007.94
2024-05-09T03:11:36.936Z,1007.92
2024-05-09T03:12:39.028Z,1007.91
2024-05-09T03:13:36.736Z,1007.94
2024-05-09T03:14:36.757Z,1007.92
2024-05-09T03:15:36.955Z,1007.94
2024-05-09T03:16:36.762Z,1007.89
2024-05-09T03:17:37.056Z,1007.88
2024-05-09T03:18:36.848Z,1007.88
2024-05-09T03:19:36.765Z,1007.86
2024-05-09T03:20:37.291Z,1007.88
2024-05-09T03:21:36.647Z,1007.92
2024-05-09T03:22:36.640Z,1007.90
2024-05-09T03:23:36.698Z,1007.87
2024-05-09T03:24:36.693Z,1007.90
2024-05-09T03:25:36.700Z,1007.92
2024-05-09T03:26:36.666Z,1007.92
2024-05-09T03:27:36.592Z,1007.89
2024-05-09T03:28:36.624Z,1007.89
2024-05-09T03:29:36.598Z,1007.85
2024-05-09T03:30:41.457Z,1007.86
2024-05-09T03:31:37.589Z,1007.87
2024-05-09T03:32:36.719Z,1007.87
2024-05-09T03:33:36.877Z,1007.86
2024-05-09T03:34:36.511Z,1007.85
2024-05-09T03:35:36.544Z,1007.87
2024-05-09T03:36:36.505Z,1007.86
2024-05-09T03:37:36.475Z,1007.84
2024-05-09T03:38:36.567Z,1007.89
2024-05-09T03:39:36.484Z,1007.88
2024-05-09T03:40:36.446Z,1007.89
2024-05-09T03:41:36.492Z,1007.93
2024-05-09T03:42:36.440Z,1007.90
2024-05-09T03:43:36.424Z,1007.91
2024-05-09T03:44:36.411Z,1007.91
2024-05-09T03:45:36.406Z,1007.90
2024-05-09T03:46:36.373Z,1007.95
2024-05-09T03:47:36.504Z,1007.93
2024-05-09T03:48:36.491Z,1007.89
2024-05-09T03:49:36.456Z,1007.89
2024-05-09T03:50:37.246Z,1007.83
2024-05-09T03:51:36.329Z,1007.88
2024-05-09T03:52:36.339Z,1007.91
2024-05-09T03:53:36.387Z,1007.87
2024-05-09T03:54:36.310Z,1007.88
2024-05-09T03:55:36.277Z,1007.88
2024-05-09T03:56:36.353Z,1007.86
2024-05-09T03:57:36.412Z,1007.87
2024-05-09T03:58:36.254Z,1007.93
2024-05-09T03:59:36.269Z,1007.91
2024-05-09T04:00:39.046Z,1007.93
2024-05-09T04:01:36.304Z,1007.94
2024-05-09T04:02:36.307Z,1007.90
2024-05-09T04:03:36.400Z,1007.96
2024-05-09T04:04:36.274Z,1007.96
2024-05-09T04:05:36.311Z,1007.97
2024-05-09T04:06:36.180Z,1007.92
2024-05-09T04:07:36.122Z,1007.94
2024-05-09T04:08:36.190Z,1007.93
2024-05-09T04:09:36.095Z,1007.94
2024-05-09T04:10:36.150Z,1007.90
2024-05-09T04:11:36.184Z,1007.92
2024-05-09T04:12:36.074Z,1007.92
2024-05-09T04:13:36.119Z,1007.91
2024-05-09T04:14:36.171Z,1007.87
2024-05-09T04:15:36.043Z,1007.90
2024-05-09T04:16:36.035Z,1007.89
2024-05-09T04:17:36.373Z,1007.89
2024-05-09T04:18:36.143Z,1007.93
2024-05-09T04:19:36.040Z,1007.91
2024-05-09T04:20:39.420Z,1007.88
2024-05-09T04:21:36.999Z,1007.93
2024-05-09T04:22:35.987Z,1007.92
2024-05-09T04:23:36.051Z,1007.94
2024-05-09T04:24:36.051Z,1007.93
2024-05-09T04:25:35.957Z,1007.95
2024-05-09T04:26:35.954Z,1007.96
2024-05-09T04:27:35.943Z,1007.93
2024-05-09T04:28:35.890Z,1007.97
2024-05-09T04:29:36.012Z,1007.99
2024-05-09T04:30:39.331Z,1008.01
2024-05-09T04:31:36.891Z,1008.04
2024-05-09T04:32:36.094Z,1007.99
2024-05-09T04:33:36.204Z,1008.03
2024-05-09T04:34:35.859Z,1008.00
2024-05-09T04:35:35.931Z,1008.01
2024-05-09T04:36:35.804Z,1008.04
2024-05-09T04:37:35.782Z,1008.04
2024-05-09T04:38:35.817Z,1008.02
2024-05-09T04:39:35.764Z,1008.03
2024-05-09T04:40:37.255Z,1008.05
2024-05-09T04:41:35.868Z,1008.06
2024-05-09T04:42:35.771Z,1008.09
2024-05-09T04:43:35.810Z,1008.04
2024-05-09T04:44:35.790Z,1008.05
2024-05-09T04:45:35.996Z,1008.09
2024-05-09T04:46:35.714Z,1008.07
2024-05-09T04:47:35.931Z,1008.09
2024-05-09T04:48:35.732Z,1008.06
2024-05-09T04:49:35.786Z,1008.04
2024-05-09T04:50:38.695Z,1008.04
2024-05-09T04:51:35.637Z,1008.05
2024-05-09T04:52:35.669Z,1008.02
2024-05-09T04:53:35.715Z,1008.03
2024-05-09T04:54:36.654Z,1008.00
2024-05-09T04:55:35.579Z,1008.00
2024-05-09T04:56:35.615Z,1008.02
2024-05-09T04:57:35.590Z,1008.03
2024-05-09T04:58:35.611Z,1008.04
2024-05-09T04:59:35.580Z,1008.02
2024-05-09T05:00:37.653Z,1008.02
2024-05-09T05:01:35.601Z,1008.05
2024-05-09T05:02:35.609Z,1008.07
2024-05-09T05:03:35.697Z,1008.04
2024-05-09T05:04:35.543Z,1008.05
2024-05-09T05:05:35.557Z,1008.04
2024-05-09T05:06:35.479Z,1008.08
2024-05-09T05:07:35.484Z,1008.08
2024-05-09T05:08:35.572Z,1008.13
2024-05-09T05:09:35.439Z,1008.10
2024-05-09T05:10:36.815Z,1008.09
2024-05-09T05:11:35.740Z,1008.05
2024-05-09T05:12:35.759Z,1008.08
2024-05-09T05:13:37.865Z,1008.06
2024-05-09T05:14:35.442Z,1008.05
2024-05-09T05:15:35.363Z,1008.14
2024-05-09T05:16:35.370Z,1008.15
2024-05-09T05:17:35.560Z,1008.17
2024-05-09T05:18:35.436Z,1008.16
2024-05-09T05:19:35.694Z,1008.09
2024-05-09T05:20:35.381Z,1008.11
2024-05-09T05:21:35.317Z,1008.14
2024-05-09T05:22:35.270Z,1008.10
2024-05-09T05:23:35.449Z,1008.13
2024-05-09T05:24:35.268Z,1008.12
2024-05-09T05:25:35.292Z,1008.10
2024-05-09T05:26:35.364Z,1008.08
2024-05-09T05:27:35.223Z,1008.05
2024-05-09T05:28:35.226Z,1008.06
2024-05-09T05:29:35.381Z,1008.10
2024-05-09T05:30:35.393Z,1008.12
2024-05-09T05:31:35.248Z,1008.11
2024-05-09T05:32:35.285Z,1008.08
2024-05-09T05:33:35.357Z,1008.16
2024-05-09T05:34:35.171Z,1008.15
2024-05-09T05:35:35.281Z,1008.16
2024-05-09T05:36:35.160Z,1008.17
2024-05-09T05:37:35.134Z,1008.17
2024-05-09T05:38:35.138Z,1008.14
2024-05-09T05:39:35.230Z,1008.16
2024-05-09T05:40:43.199Z,1008.12
2024-05-09T05:41:35.091Z,1008.15
2024-05-09T05:42:35.037Z,1008.19
2024-05-09T05:43:35.067Z,1008.18
2024-05-09T05:44:35.083Z,1008.16
2024-05-09T05:45:35.061Z,1008.18
2024-05-09T05:46:35.008Z,1008.19
2024-05-09T05:47:35.269Z,1008.19
2024-05-09T05:48:35.131Z,1008.21
2024-05-09T05:49:35.062Z,1008.15
2024-05-09T05:50:37.384Z,1008.14
2024-05-09T05:51:34.948Z,1008.13
2024-05-09T05:52:34.941Z,1008.16
2024-05-09T05:53:35.086Z,1008.14
2024-05-09T05:54:34.932Z,1008.14
2024-05-09T05:55:34.910Z,1008.17
2024-05-09T05:56:34.984Z,1008.18
2024-05-09T05:57:34.876Z,1008.17
2024-05-09T05:58:34.871Z,1008.18
2024-05-09T05:59:34.984Z,1008.16
2024-05-09T06:00:38.553Z,1008.15
2024-05-09T06:01:35.880Z,1008.15
2024-05-09T06:02:34.938Z,1008.13
2024-05-09T06:03:34.951Z,1008.19
2024-05-09T06:04:34.849Z,1008.20
2024-05-09T06:05:34.851Z,1008.19
2024-05-09T06:06:34.800Z,1008.13
2024-05-09T06:07:34.794Z,1008.16
2024-05-09T06:08:34.876Z,1008.17
2024-05-09T06:09:34.750Z,1008.19
2024-05-09T06:10:38.880Z,1008.21
2024-05-09T06:11:35.796Z,1008.21
2024-05-09T06:12:34.720Z,1008.26
2024-05-09T06:13:34.707Z,1008.29
2024-05-09T06:14:34.862Z,1008.25
2024-05-09T06:15:34.729Z,1008.29
2024-05-09T06:16:34.684Z,1008.27
2024-05-09T06:17:34.833Z,1008.24
2024-05-09T06:18:34.980Z,1008.30
2024-05-09T06:19:34.685Z,1008.22
2024-05-09T06:20:37.368Z,1008.24
2024-05-09T06:21:34.824Z,1008.21
2024-05-09T06:22:34.633Z,1008.22
2024-05-09T06:23:34.784Z,1008.21
2024-05-09T06:24:34.585Z,1008.25
2024-05-09T06:25:34.662Z,1008.25
2024-05-09T06:26:34.632Z,1008.22
2024-05-09T06:27:34.596Z,1008.24
2024-05-09T06:28:34.522Z,1008.16
2024-05-09T06:29:34.581Z,1008.18
2024-05-09T06:30:38.962Z,1008.15
2024-05-09T06:31:35.600Z,1008.14
2024-05-09T06:32:34.535Z,1008.15
2024-05-09T06:33:34.763Z,1008.12
2024-05-09T06:34:34.659Z,1008.13
2024-05-09T06:35:34.758Z,1008.09
2024-05-09T06:36:34.468Z,1008.10
2024-05-09T06:37:34.439Z,1008.04
2024-05-09T06:38:34.577Z,1008.07
2024-05-09T06:39:34.422Z,1008.03
2024-05-09T06:40:38.305Z,1008.14
2024-05-09T06:41:35.428Z,1008.12
2024-05-09T06:42:34.384Z,1008.14
2024-05-09T06:43:34.362Z,1008.13
2024-05-09T06:44:34.392Z,1008.14
2024-05-09T06:45:34.354Z,1008.15
2024-05-09T06:46:34.318Z,1008.12
2024-05-09T06:47:34.503Z,1008.12
2024-05-09T06:48:34.500Z,1008.10
2024-05-09T06:49:34.325Z,1008.09
2024-05-09T06:50:37.785Z,1008.15
2024-05-09T06:51:35.272Z,1008.11
2024-05-09T06:52:34.253Z,1008.10
2024-05-09T06:53:34.422Z,1008.12
2024-05-09T06:54:34.250Z,1008.11
2024-05-09T06:55:34.213Z,1008.11
2024-05-09T06:56:34.255Z,1008.11
2024-05-09T06:57:34.196Z,1008.07
2024-05-09T06:58:34.181Z,1008.05
2024-05-09T06:59:34.388Z,1008.08
2024-05-09T07:00:38.679Z,1008.12
2024-05-09T07:01:35.213Z,1008.12
2024-05-09T07:02:34.286Z,1008.14
2024-05-09T07:03:34.276Z,1008.17
2024-05-09T07:04:34.240Z,1008.16
2024-05-09T07:05:34.190Z,1008.13
2024-05-09T07:06:34.098Z,1008.12
2024-05-09T07:07:34.078Z,1008.11
2024-05-09T07:08:34.282Z,1008.11
2024-05-09T07:09:34.070Z,1008.14
2024-05-09T07:10:35.666Z,1008.15
2024-05-09T07:11:34.241Z,1008.14
2024-05-09T07:12:34.199Z,1008.12
2024-05-09T07:13:34.022Z,1008.09
2024-05-09T07:14:36.028Z,1008.15
2024-05-09T07:15:33.994Z,1008.16
2024-05-09T07:16:33.985Z,1008.15
2024-05-09T07:17:34.278Z,1008.17
2024-05-09T07:18:34.103Z,1008.14
2024-05-09T07:19:34.026Z,1008.13
2024-05-09T07:20:35.137Z,1008.16
2024-05-09T07:21:33.961Z,1008.12
2024-05-09T07:22:33.933Z,1008.09
2024-05-09T07:23:34.234Z,1008.10
2024-05-09T07:24:33.898Z,1008.15
2024-05-09T07:25:33.886Z,1008.15
2024-05-09T07:26:33.961Z,1008.17
2024-05-09T07:27:33.986Z,1008.20
2024-05-09T07:28:33.914Z,1008.14
2024-05-09T07:29:36.281Z,1008.10
2024-05-09T07:30:34.958Z,1008.11
2024-05-09T07:31:33.827Z,1008.11
2024-05-09T07:32:34.012Z,1008.12
2024-05-09T07:33:33.943Z,1008.04
2024-05-09T07:34:33.922Z,1008.04
2024-05-09T07:35:33.990Z,1008.02
2024-05-09T07:36:33.770Z,1008.01
2024-05-09T07:37:33.805Z,1008.01
2024-05-09T07:38:33.777Z,1008.03
2024-05-09T07:39:33.720Z,1007.99
2024-05-09T07:40:36.545Z,1007.98
2024-05-09T07:41:33.924Z,1008.03
2024-05-09T07:42:33.859Z,1007.97
2024-05-09T07:43:33.689Z,1007.97
2024-05-09T07:44:33.744Z,1007.96
2024-05-09T07:50:34.292Z,1007.93
2024-05-09T07:52:23.114Z,1007.90
2024-05-09T07:53:33.202Z,1007.85
2024-05-09T07:53:42.057Z,1007.83
2024-05-09T07:54:34.714Z,1007.81
2024-05-09T07:55:33.621Z,1007.83
2024-05-09T07:56:33.641Z,1007.82
2024-05-09T07:57:33.529Z,1007.86
2024-05-09T07:58:33.536Z,1007.84
2024-05-09T07:59:37.628Z,1007.84
2024-05-09T08:00:33.649Z,1007.85
2024-05-09T08:01:33.658Z,1007.84
2024-05-09T08:02:33.693Z,1007.84
2024-05-09T08:03:33.749Z,1007.81
2024-05-09T08:04:33.603Z,1007.83
2024-05-09T08:05:33.636Z,1007.81
2024-05-09T08:06:33.471Z,1007.82
2024-05-09T08:07:33.438Z,1007.80
2024-05-09T08:08:33.422Z,1007.75
2024-05-09T08:09:34.656Z,1007.81
2024-05-09T08:10:33.394Z,1007.75
2024-05-09T08:11:33.410Z,1007.72
2024-05-09T08:12:33.368Z,1007.77
2024-05-09T08:13:33.372Z,1007.77
2024-05-09T08:14:33.377Z,1007.74
2024-05-09T08:15:33.382Z,1007.72
2024-05-09T08:16:33.379Z,1007.75
2024-05-09T08:17:33.444Z,1007.77
2024-05-09T08:18:33.573Z,1007.74
2024-05-09T08:19:33.293Z,1007.74
2024-05-09T08:20:35.310Z,1007.77
2024-05-09T08:21:33.307Z,1007.74
2024-05-09T08:22:33.239Z,1007.72
2024-05-09T08:23:33.239Z,1007.79
2024-05-09T08:24:33.255Z,1007.79
2024-05-09T08:25:33.219Z,1007.79
2024-05-09T08:26:33.221Z,1007.78
2024-05-09T08:27:33.231Z,1007.74
2024-05-09T08:28:33.198Z,1007.79
2024-05-09T08:29:33.171Z,1007.74
2024-05-09T08:30:37.007Z,1007.75
2024-05-09T08:31:34.317Z,1007.75
2024-05-09T08:32:33.214Z,1007.75
2024-05-09T08:33:33.442Z,1007.79
2024-05-09T08:34:33.234Z,1007.72
2024-05-09T08:35:33.123Z,1007.72
2024-05-09T08:36:33.144Z,1007.75
2024-05-09T08:37:37.919Z,1007.72
2024-05-09T08:38:33.103Z,1007.70
2024-05-09T08:39:33.120Z,1007.72
2024-05-09T08:40:35.984Z,1007.74
2024-05-09T08:41:33.055Z,1007.73
2024-05-09T08:42:33.075Z,1007.70
2024-05-09T08:43:33.018Z,1007.70
2024-05-09T08:44:33.031Z,1007.69
2024-05-09T08:45:33.007Z,1007.68
2024-05-09T08:46:33.053Z,1007.69
2024-05-09T08:47:33.016Z,1007.70
2024-05-09T08:48:33.286Z,1007.66
2024-05-09T08:49:33.016Z,1007.63
2024-05-09T08:50:38.494Z,1007.67
2024-05-09T08:51:33.955Z,1007.60
2024-05-09T08:52:32.913Z,1007.60
2024-05-09T08:53:32.899Z,1007.65
2024-05-09T08:54:32.901Z,1007.66
2024-05-09T08:55:32.954Z,1007.65
2024-05-09T08:56:32.918Z,1007.63
2024-05-09T08:57:32.892Z,1007.66
2024-05-09T08:58:32.844Z,1007.67
2024-05-09T08:59:32.865Z,1007.60
2024-05-09T09:00:36.968Z,1007.62
2024-05-09T09:01:33.921Z,1007.60
2024-05-09T09:02:33.331Z,1007.61
2024-05-09T09:03:32.977Z,1007.65
2024-05-09T09:04:32.888Z,1007.59
2024-05-09T09:05:32.915Z,1007.61
2024-05-09T09:06:32.765Z,1007.56
2024-05-09T09:07:32.787Z,1007.58
2024-05-09T09:08:32.783Z,1007.61
2024-05-09T09:09:32.761Z,1007.59
2024-05-09T09:10:33.471Z,1007.63
2024-05-09T09:11:32.771Z,1007.64
2024-05-09T09:12:32.751Z,1007.65
2024-05-09T09:13:32.684Z,1007.61
2024-05-09T09:14:32.713Z,1007.65
2024-05-09T09:15:33.209Z,1007.70
2024-05-09T09:16:32.694Z,1007.69
2024-05-09T09:17:32.749Z,1007.65
2024-05-09T09:18:33.047Z,1007.64
2024-05-09T09:19:32.673Z,1007.69
2024-05-09T09:20:36.514Z,1007.71
2024-05-09T09:21:32.671Z,1007.71
2024-05-09T09:22:32.573Z,1007.71
2024-05-09T09:23:32.580Z,1007.63
2024-05-09T09:24:32.710Z,1007.63
2024-05-09T09:25:32.534Z,1007.65
2024-05-09T09:26:32.548Z,1007.65
2024-05-09T09:27:32.533Z,1007.66
2024-05-09T09:28:32.527Z,1007.61
2024-05-09T09:29:32.495Z,1007.66
2024-05-09T09:30:37.299Z,1007.67
2024-05-09T09:31:32.501Z,1007.68
2024-05-09T09:32:32.578Z,1007.71
2024-05-09T09:33:32.964Z,1007.70
2024-05-09T09:34:32.681Z,1007.67
2024-05-09T09:35:32.429Z,1007.65
2024-05-09T09:36:32.448Z,1007.64
2024-05-09T09:37:32.421Z,1007.63
2024-05-09T09:38:32.459Z,1007.64
2024-05-09T09:39:32.428Z,1007.57
2024-05-09T09:40:34.806Z,1007.61
2024-05-09T09:41:32.365Z,1007.58
2024-05-09T09:42:32.426Z,1007.61
2024-05-09T09:43:32.344Z,1007.63
2024-05-09T09:44:33.071Z,1007.63
2024-05-09T09:45:32.370Z,1007.63
2024-05-09T09:46:32.343Z,1007.58
2024-05-09T09:47:32.418Z,1007.57
2024-05-09T09:48:32.526Z,1007.54
2024-05-09T09:49:32.338Z,1007.55
2024-05-09T09:50:34.805Z,1007.60
2024-05-09T09:51:32.286Z,1007.59
2024-05-09T09:52:32.347Z,1007.55
2024-05-09T09:53:32.222Z,1007.43
2024-05-09T09:54:32.305Z,1007.45
2024-05-09T09:55:32.202Z,1007.48
2024-05-09T09:56:32.232Z,1007.48
2024-05-09T09:57:32.253Z,1007.53
2024-05-09T09:58:32.209Z,1007.53
2024-05-09T09:59:32.157Z,1007.54
2024-05-09T10:00:33.491Z,1007.50
2024-05-09T10:01:32.269Z,1007.45
2024-05-09T10:02:32.352Z,1007.43
2024-05-09T10:03:32.347Z,1007.49
2024-05-09T10:04:32.213Z,1007.48
2024-05-09T10:05:32.316Z,1007.48
2024-05-09T10:06:32.139Z,1007.51
2024-05-09T10:07:32.071Z,1007.50
2024-05-09T10:08:32.075Z,1007.45
2024-05-09T10:09:32.120Z,1007.44
2024-05-09T10:10:33.230Z,1007.42
2024-05-09T10:11:34.897Z,1007.41
2024-05-09T10:12:33.219Z,1007.41
2024-05-09T10:13:32.059Z,1007.42
2024-05-09T10:14:31.996Z,1007.39
2024-05-09T10:15:32.020Z,1007.40
2024-05-09T10:16:32.033Z,1007.44
2024-05-09T10:17:32.024Z,1007.41
2024-05-09T10:18:34.122Z,1007.42
2024-05-09T10:19:32.138Z,1007.42
2024-05-09T10:20:32.952Z,1007.36
2024-05-09T10:21:31.943Z,1007.41
2024-05-09T10:22:31.902Z,1007.35
2024-05-09T10:23:31.883Z,1007.38
2024-05-09T10:24:31.918Z,1007.35
2024-05-09T10:25:31.968Z,1007.39
2024-05-09T10:26:31.847Z,1007.32
2024-05-09T10:27:31.903Z,1007.26
2024-05-09T10:28:31.875Z,1007.28
2024-05-09T10:29:31.824Z,1007.31
2024-05-09T10:30:35.966Z,1007.34
2024-05-09T10:31:31.846Z,1007.25
2024-05-09T10:32:31.837Z,1007.25
2024-05-09T10:33:31.940Z,1007.25
2024-05-09T10:34:31.965Z,1007.21
2024-05-09T10:35:31.730Z,1007.23
2024-05-09T10:36:31.742Z,1007.25
2024-05-09T10:37:31.823Z,1007.17
2024-05-09T10:38:31.735Z,1007.25
2024-05-09T10:39:31.794Z,1007.20
2024-05-09T10:40:32.242Z,1007.21
2024-05-09T10:41:31.663Z,1007.24
2024-05-09T10:42:31.768Z,1007.18
2024-05-09T10:43:31.734Z,1007.11
2024-05-09T10:44:31.654Z,1007.14
2024-05-09T10:45:31.657Z,1007.12
2024-05-09T10:46:31.751Z,1007.09
2024-05-09T10:47:31.704Z,1007.04
2024-05-09T10:48:31.684Z,1007.11
2024-05-09T10:49:31.673Z,1007.12
2024-05-09T10:50:34.271Z,1007.15
2024-05-09T10:51:31.562Z,1007.08
2024-05-09T10:52:31.556Z,1007.10
2024-05-09T10:53:31.536Z,1007.07
2024-05-09T10:54:31.548Z,1007.03
2024-05-09T10:55:31.585Z,1007.00
2024-05-09T10:56:31.503Z,1006.99
2024-05-09T10:57:31.524Z,1006.99
2024-05-09T10:58:31.471Z,1007.04
2024-05-09T10:59:31.467Z,1006.99
2024-05-09T11:00:35.769Z,1006.98
2024-05-09T11:01:31.575Z,1006.97
2024-05-09T11:02:31.661Z,1007.02
2024-05-09T11:03:31.586Z,1006.97
2024-05-09T11:04:31.540Z,1006.91
2024-05-09T11:05:31.501Z,1006.94
2024-05-09T11:06:31.441Z,1006.89
2024-05-09T11:07:31.446Z,1006.88
2024-05-09T11:08:31.373Z,1006.85
2024-05-09T11:09:31.357Z,1006.84
2024-05-09T11:10:33.992Z,1006.85
2024-05-09T11:11:31.403Z,1006.81
2024-05-09T11:12:31.392Z,1006.81
2024-05-09T11:13:31.615Z,1006.88
2024-05-09T11:14:31.322Z,1006.86
2024-05-09T11:15:31.345Z,1006.82
2024-05-09T11:16:31.377Z,1006.82
2024-05-09T11:17:31.337Z,1006.81
2024-05-09T11:18:35.107Z,1006.90
2024-05-09T11:19:32.338Z,1006.81
2024-05-09T11:20:34.829Z,1006.82
2024-05-09T11:21:31.260Z,1006.81
2024-05-09T11:22:31.213Z,1006.77
2024-05-09T11:23:31.191Z,1006.74
2024-05-09T11:24:31.195Z,1006.81
2024-05-09T11:25:31.213Z,1006.80
2024-05-09T11:26:31.172Z,1006.78
2024-05-09T11:27:31.182Z,1006.78
2024-05-09T11:28:31.133Z,1006.79
2024-05-09T11:29:31.133Z,1006.78
2024-05-09T11:30:32.368Z,1006.70
2024-05-09T11:31:31.360Z,1006.77
2024-05-09T11:32:31.276Z,1006.69
2024-05-09T11:33:31.161Z,1006.70
2024-05-09T11:34:31.171Z,1006.70
2024-05-09T11:35:31.055Z,1006.71
2024-05-09T11:36:31.126Z,1006.65
2024-05-09T11:37:34.041Z,1006.61
2024-05-09T11:38:31.019Z,1006.66
2024-05-09T11:39:31.064Z,1006.64
2024-05-09T11:40:34.319Z,1006.62
2024-05-09T11:41:31.001Z,1006.59
2024-05-09T11:42:31.041Z,1006.60
2024-05-09T11:43:31.087Z,1006.57
2024-05-09T11:44:30.959Z,1006.60
2024-05-09T11:45:31.030Z,1006.61
2024-05-09T11:46:30.971Z,1006.62
2024-05-09T11:47:39.050Z,1006.61
2024-05-09T11:48:31.544Z,1006.57
2024-05-09T11:49:30.990Z,1006.54
2024-05-09T11:50:35.325Z,1006.56
2024-05-09T11:51:31.989Z,1006.55
2024-05-09T11:52:30.904Z,1006.49
2024-05-09T11:53:30.879Z,1006.46
2024-05-09T11:54:30.924Z,1006.42
2024-05-09T11:55:31.036Z,1006.42
2024-05-09T11:56:30.896Z,1006.41
2024-05-09T11:57:30.983Z,1006.39
2024-05-09T11:58:30.822Z,1006.40
2024-05-09T11:59:30.845Z,1006.36
2024-05-09T12:00:36.618Z,1006.37
2024-05-09T12:01:32.124Z,1006.38
2024-05-09T12:02:30.909Z,1006.34
2024-05-09T12:03:30.934Z,1006.35
2024-05-09T12:04:30.829Z,1006.41
2024-05-09T12:05:30.824Z,1006.37
2024-05-09T12:06:30.791Z,1006.37
2024-05-09T12:07:30.823Z,1006.39
2024-05-09T12:08:30.712Z,1006.39
2024-05-09T12:09:30.708Z,1006.38
2024-05-09T12:10:33.841Z,1006.40